Time;durP1;ratioP1;P1;durP2;ratioP2;P2;SDS_P1;SDS_P2;PMS_P1;PMS_P2;Temp;Humidity;BMP_temperature;BMP_pressure;BME280_temperature;BME280_humidity;BME280_pressure;Samples;Min_cycle;Max_cycle;Signal;HPM_P1;HPM_P2
2022/08/09 00:00:07;;;;;;;4.72;3.90;;;16.30;99.90;;;;;;4952391;29;20114;-82
2022/08/09 00:02:33;;;;;;;4.18;3.78;;;16.30;99.90;;;;;;4945684;29;20043;-82
2022/08/09 00:04:59;;;;;;;3.85;3.55;;;16.30;99.90;;;;;;4953889;28;20031;-82
2022/08/09 00:07:25;;;;;;;3.72;3.42;;;16.30;99.90;;;;;;4956688;28;20585;-81
2022/08/09 00:09:50;;;;;;;7.82;3.53;;;16.10;99.90;;;;;;4955891;28;20143;-82
2022/08/09 00:12:16;;;;;;;3.50;3.20;;;16.10;99.90;;;;;;4952830;29;20050;-83
2022/08/09 00:14:42;;;;;;;3.30;3.10;;;16.10;99.90;;;;;;4953929;29;20073;-82
2022/08/09 00:17:08;;;;;;;2.90;2.70;;;16.10;99.90;;;;;;4951927;28;20034;-81
2022/08/09 00:19:34;;;;;;;2.63;2.42;;;16.10;99.90;;;;;;4938298;29;20039;-82
2022/08/09 00:22:00;;;;;;;2.70;2.50;;;16.00;99.90;;;;;;4925721;29;20038;-82
2022/08/09 00:24:26;;;;;;;3.08;2.88;;;16.00;99.90;;;;;;4957911;29;20054;-81
2022/08/09 00:26:52;;;;;;;2.78;2.58;;;15.90;99.90;;;;;;4957701;29;20027;-81
2022/08/09 00:29:18;;;;;;;3.65;3.35;;;15.70;99.90;;;;;;4952804;29;20054;-81
2022/08/09 00:31:43;;;;;;;3.92;3.60;;;15.70;99.90;;;;;;4956519;28;20051;-82
2022/08/09 00:34:09;;;;;;;4.20;3.80;;;15.60;99.90;;;;;;4961971;28;20049;-82
2022/08/09 00:36:35;;;;;;;4.35;3.90;;;15.60;99.90;;;;;;4941135;29;20031;-82
2022/08/09 00:39:01;;;;;;;4.07;3.78;;;15.60;99.90;;;;;;4958321;29;20042;-82
2022/08/09 00:41:26;;;;;;;6.57;4.10;;;15.70;99.90;;;;;;4942282;29;20083;-81
2022/08/09 00:43:52;;;;;;;3.95;3.67;;;15.70;99.90;;;;;;4963307;28;20031;-82
2022/08/09 00:46:18;;;;;;;4.75;4.15;;;15.60;99.90;;;;;;4956491;28;20031;-81
2022/08/09 00:48:45;;;;;;;4.00;3.70;;;15.60;99.90;;;;;;4952415;28;20114;-81
2022/08/09 00:51:12;;;;;;;4.07;3.78;;;15.60;99.90;;;;;;4952612;29;20055;-82
2022/08/09 00:53:38;;;;;;;3.72;3.35;;;15.70;99.90;;;;;;4953391;28;20054;-83
2022/08/09 00:56:05;;;;;;;3.75;3.38;;;15.60;99.90;;;;;;4955489;28;20043;-81
2022/08/09 00:58:31;;;;;;;3.40;3.10;;;15.60;99.90;;;;;;4947551;29;20035;-82
2022/08/09 01:00:57;;;;;;;2.75;2.55;;;15.50;99.90;;;;;;4952529;29;20039;-82
2022/08/09 01:03:49;;;;;;;2.78;2.58;;;15.50;99.90;;;;;;4949684;29;20570;-81
2022/08/09 01:06:22;;;;;;;2.20;2.10;;;15.50;99.90;;;;;;4950198;28;20019;-81
2022/08/09 01:09:01;;;;;;;2.85;2.63;;;15.50;99.90;;;;;;4953062;28;20047;-82
2022/08/09 01:11:33;;;;;;;2.53;2.42;;;15.40;99.90;;;;;;4951094;29;20031;-81
2022/08/09 01:14:06;;;;;;;2.80;2.60;;;15.40;99.90;;;;;;4951020;29;20105;-81
2022/08/09 01:16:35;;;;;;;2.00;1.90;;;15.30;99.90;;;;;;4947241;29;20039;-81
2022/08/09 01:19:26;;;;;;;2.00;1.90;;;15.30;99.90;;;;;;4952480;29;20043;-81
2022/08/09 01:22:04;;;;;;;12.02;3.17;;;15.10;99.90;;;;;;4942877;29;20035;-81
2022/08/09 01:24:59;;;;;;;2.58;2.47;;;14.70;99.90;;;;;;4953034;29;20031;-80
2022/08/09 01:27:27;;;;;;;3.47;2.70;;;14.50;99.90;;;;;;4951134;29;20386;-81
2022/08/09 01:30:06;;;;;;;2.35;2.25;;;14.60;99.90;;;;;;4953081;28;20039;-81
2022/08/09 01:32:35;;;;;;;3.42;3.17;;;14.70;99.90;;;;;;4948476;28;20051;-81
2022/08/09 01:35:06;;;;;;;3.33;3.05;;;14.80;99.90;;;;;;4946468;29;20158;-81
2022/08/09 01:37:34;;;;;;;3.45;3.17;;;14.80;99.90;;;;;;4951754;29;20035;-81
2022/08/09 01:40:03;;;;;;;3.67;3.30;;;14.80;99.90;;;;;;4953088;29;20036;-81
2022/08/09 01:42:31;;;;;;;3.05;2.85;;;14.80;99.90;;;;;;4935311;29;20031;-81
2022/08/09 01:44:58;;;;;;;2.72;2.53;;;14.90;99.90;;;;;;4951304;29;20086;-81
2022/08/09 01:47:25;;;;;;;2.60;2.50;;;14.80;99.90;;;;;;4937203;29;20046;-81
2022/08/09 01:49:52;;;;;;;2.30;2.20;;;14.70;99.90;;;;;;4952220;28;20117;-81
2022/08/09 01:52:19;;;;;;;2.85;2.65;;;14.60;99.90;;;;;;4937675;29;20114;-82
2022/08/09 01:54:51;;;;;;;2.75;2.60;;;14.70;99.90;;;;;;4941107;29;20035;-81
2022/08/09 01:57:23;;;;;;;2.40;2.20;;;14.70;99.90;;;;;;4934965;29;20035;-81
2022/08/09 01:59:53;;;;;;;2.30;2.20;;;14.70;99.90;;;;;;4949798;29;20031;-81
2022/08/09 02:02:24;;;;;;;3.00;2.67;;;14.70;99.90;;;;;;4951260;28;20458;-81
2022/08/09 02:04:51;;;;;;;3.90;3.60;;;14.60;99.90;;;;;;4934861;29;20035;-81
2022/08/09 02:07:19;;;;;;;4.35;3.95;;;14.60;99.90;;;;;;4944563;29;20126;-81
2022/08/09 02:09:56;;;;;;;;;;;14.40;99.90;;;;;;4949928;28;20399;-82
2022/08/09 02:12:23;;;;;;;4.40;3.83;;;14.30;99.90;;;;;;4937161;29;19918;-82
2022/08/09 02:14:51;;;;;;;4.95;4.55;;;14.20;99.90;;;;;;4947978;28;20042;-81
2022/08/09 02:17:25;;;;;;;3.20;3.00;;;14.20;99.90;;;;;;4952344;28;20486;-81
2022/08/09 02:19:51;;;;;;;5.38;3.85;;;14.20;99.90;;;;;;4952598;29;20145;-82
2022/08/09 02:22:25;;;;;;;4.32;3.85;;;14.20;99.90;;;;;;4956932;29;20163;-81
2022/08/09 02:24:54;;;;;;;4.10;3.63;;;14.10;99.90;;;;;;4954357;29;20035;-81
2022/08/09 02:27:22;;;;;;;5.47;4.45;;;14.20;99.90;;;;;;4955193;29;20031;-81
2022/08/09 02:29:50;;;;;;;3.20;3.00;;;14.10;99.90;;;;;;4955239;29;20038;-81
2022/08/09 02:32:19;;;;;;;3.40;3.10;;;14.10;99.90;;;;;;4954776;28;20046;-81
2022/08/09 02:34:48;;;;;;;2.30;2.20;;;14.10;99.90;;;;;;4953742;29;20038;-81
2022/08/09 02:37:17;;;;;;;2.15;2.05;;;13.90;99.90;;;;;;4956156;29;20360;-81
2022/08/09 02:39:48;;;;;;;2.38;2.20;;;13.90;99.90;;;;;;4956515;29;20043;-82
2022/08/09 02:42:18;;;;;;;3.00;2.80;;;14.00;99.90;;;;;;4956720;29;20378;-81
2022/08/09 02:44:56;;;;;;;2.80;2.60;;;14.00;99.90;;;;;;4956182;28;20082;-82
2022/08/09 02:47:24;;;;;;;3.15;2.85;;;14.00;99.90;;;;;;4953907;28;20070;-82
2022/08/09 02:50:16;;;;;;;2.05;1.85;;;14.00;99.90;;;;;;4957011;29;20094;-82
2022/08/09 02:52:58;;;;;;;2.10;2.00;;;13.70;99.90;;;;;;4949885;29;20047;-81
2022/08/09 02:55:26;;;;;;;3.83;2.78;;;13.30;99.90;;;;;;4955811;29;20050;-82
2022/08/09 02:57:53;;;;;;;3.50;3.20;;;13.10;99.90;;;;;;4957527;29;20039;-82
2022/08/09 03:00:19;;;;;;;3.80;3.35;;;13.10;99.90;;;;;;4953422;29;20454;-82
2022/08/09 03:02:49;;;;;;;4.50;4.10;;;13.30;99.90;;;;;;4955293;28;20043;-81
2022/08/09 03:05:16;;;;;;;4.07;3.72;;;13.40;99.90;;;;;;4954290;29;20039;-81
2022/08/09 03:07:43;;;;;;;4.57;4.18;;;13.50;99.90;;;;;;4955573;28;20042;-81
2022/08/09 03:10:10;;;;;;;5.03;3.60;;;13.50;99.90;;;;;;4954297;29;20066;-81
2022/08/09 03:12:38;;;;;;;4.15;3.85;;;13.50;99.90;;;;;;4939525;29;20033;-81
2022/08/09 03:15:05;;;;;;;;;;;13.50;99.90;;;;;;4953654;28;20082;-82
2022/08/09 03:17:32;;;;;;;3.88;3.22;;;13.50;99.90;;;;;;4953173;28;20410;-81
2022/08/09 03:20:00;;;;;;;3.35;3.05;;;13.60;99.90;;;;;;4956084;28;20119;-81
2022/08/09 03:22:28;;;;;;;3.47;3.17;;;13.60;99.90;;;;;;4938499;29;20800;-81
2022/08/09 03:24:53;;;;;;;4.10;3.80;;;13.60;99.90;;;;;;4952768;28;20039;-82
2022/08/09 03:27:20;;;;;;;3.70;3.40;;;13.60;99.90;;;;;;4955233;29;20051;-82
2022/08/09 03:29:46;;;;;;;4.95;4.47;;;13.50;99.90;;;;;;4953870;28;20513;-81
2022/08/09 03:32:13;;;;;;;5.22;4.55;;;13.50;99.90;;;;;;4953889;29;20442;-82
2022/08/09 03:34:38;;;;;;;7.15;5.22;;;13.40;99.90;;;;;;4938252;29;20054;-81
2022/08/09 03:37:04;;;;;;;5.07;4.68;;;13.50;99.90;;;;;;4957551;29;20031;-82
2022/08/09 03:39:30;;;;;;;5.35;4.88;;;13.40;99.90;;;;;;4956325;28;20035;-81
2022/08/09 03:41:56;;;;;;;4.88;4.47;;;13.40;99.90;;;;;;4958593;28;20485;-81
2022/08/09 03:44:23;;;;;;;5.72;4.65;;;13.40;99.90;;;;;;4955431;29;20043;-82
2022/08/09 03:46:49;;;;;;;4.93;4.43;;;13.40;99.90;;;;;;4953443;28;20039;-82
2022/08/09 03:49:17;;;;;;;4.38;3.97;;;13.40;99.90;;;;;;4954818;28;20287;-81
2022/08/09 03:51:46;;;;;;;3.30;3.10;;;13.40;99.90;;;;;;4956150;28;20166;-81
2022/08/09 03:54:13;;;;;;;3.67;3.38;;;13.40;99.90;;;;;;4952136;29;20066;-81
2022/08/09 03:56:40;;;;;;;2.05;1.67;;;13.40;99.90;;;;;;4956392;29;20070;-82
2022/08/09 03:59:06;;;;;;;1.35;1.35;;;13.30;99.90;;;;;;4955535;28;20419;-81
2022/08/09 04:01:33;;;;;;;1.85;1.75;;;13.30;99.90;;;;;;4955301;29;20135;-81
2022/08/09 04:04:00;;;;;;;1.77;1.67;;;13.10;99.90;;;;;;4955312;29;20121;-82
2022/08/09 04:06:26;;;;;;;2.17;2.08;;;13.00;99.90;;;;;;4954623;29;20382;-81
2022/08/09 04:08:51;;;;;;;2.50;2.40;;;12.90;99.90;;;;;;4953758;28;20043;-82
2022/08/09 04:11:17;;;;;;;4.55;2.67;;;13.00;99.90;;;;;;4935720;29;20061;-81
2022/08/09 04:13:43;;;;;;;3.63;3.33;;;13.00;99.90;;;;;;4955775;29;20516;-82
2022/08/09 04:16:08;;;;;;;3.72;3.40;;;12.80;99.90;;;;;;4959637;28;20042;-82
2022/08/09 04:18:34;;;;;;;4.43;3.40;;;12.60;99.90;;;;;;4953754;29;20475;-81
2022/08/09 04:21:00;;;;;;;6.13;4.10;;;12.40;99.90;;;;;;4953938;29;20058;-81
2022/08/09 04:23:25;;;;;;;4.15;3.70;;;12.40;99.90;;;;;;4958119;28;20355;-81
2022/08/09 04:25:52;;;;;;;3.70;3.40;;;12.50;99.90;;;;;;4947989;28;21995;-81
2022/08/09 04:28:20;;;;;;;3.95;3.65;;;12.60;99.90;;;;;;4953343;29;20035;-81
2022/08/09 04:30:45;;;;;;;3.38;3.17;;;12.70;99.90;;;;;;4954128;29;20046;-81
2022/08/09 04:33:11;;;;;;;2.92;2.72;;;12.80;99.90;;;;;;4944126;29;20039;-81
2022/08/09 04:35:39;;;;;;;2.40;2.20;;;12.80;99.90;;;;;;4952682;29;20042;-82
2022/08/09 04:38:05;;;;;;;2.50;2.30;;;12.80;99.90;;;;;;4956515;28;20569;-81
2022/08/09 04:40:49;;;;;;;2.38;2.28;;;12.90;99.90;;;;;;4955562;28;20142;-81
2022/08/09 04:43:16;;;;;;;2.00;1.90;;;12.90;99.90;;;;;;4953026;29;20039;-81
2022/08/09 04:45:42;;;;;;;2.30;2.20;;;12.90;99.90;;;;;;4949497;29;20111;-82
2022/08/09 04:48:08;;;;;;;2.20;2.10;;;12.90;99.90;;;;;;4949941;29;20082;-82
2022/08/09 04:50:34;;;;;;;2.05;1.95;;;12.90;99.90;;;;;;4957143;28;20039;-82
2022/08/09 04:53:00;;;;;;;2.35;2.25;;;12.90;99.90;;;;;;4953949;28;20042;-82
2022/08/09 04:55:25;;;;;;;2.10;2.00;;;12.70;99.90;;;;;;4958336;28;20039;-81
2022/08/09 04:57:51;;;;;;;3.72;3.42;;;12.80;99.90;;;;;;4952233;28;20039;-82
2022/08/09 05:00:17;;;;;;;3.65;3.35;;;12.90;99.90;;;;;;4954605;29;20039;-81
2022/08/09 05:02:43;;;;;;;3.85;3.55;;;13.00;99.90;;;;;;4951776;28;20039;-82
2022/08/09 05:05:09;;;;;;;4.13;3.70;;;13.10;99.90;;;;;;4954809;29;20114;-82
2022/08/09 05:07:34;;;;;;;3.85;3.55;;;13.20;99.90;;;;;;4957860;28;20035;-81
2022/08/09 05:10:00;;;;;;;4.75;4.35;;;13.30;99.90;;;;;;4954792;28;20063;-81
2022/08/09 05:12:26;;;;;;;4.45;4.05;;;13.40;99.90;;;;;;4951763;29;20043;-82
2022/08/09 05:14:51;;;;;;;5.05;4.43;;;13.50;99.90;;;;;;4946943;29;20455;-81
2022/08/09 05:17:17;;;;;;;5.65;4.60;;;13.50;99.90;;;;;;4940535;28;20031;-81
2022/08/09 05:19:43;;;;;;;5.43;4.75;;;13.50;99.90;;;;;;4953018;29;20040;-82
2022/08/09 05:22:11;;;;;;;5.68;5.03;;;13.60;99.90;;;;;;4947698;29;20916;-82
2022/08/09 05:24:37;;;;;;;6.28;5.78;;;13.70;99.90;;;;;;4950570;29;20023;-81
2022/08/09 05:27:02;;;;;;;6.45;5.90;;;13.80;99.90;;;;;;4945776;29;20646;-82
2022/08/09 05:29:28;;;;;;;6.63;6.03;;;13.90;99.90;;;;;;4947691;29;20044;-82
2022/08/09 05:31:58;;;;;;;7.00;6.38;;;14.10;99.90;;;;;;4950205;29;20127;-80
2022/08/09 05:34:29;;;;;;;7.80;7.10;;;14.10;99.90;;;;;;4947617;29;20055;-81
2022/08/09 05:36:57;;;;;;;9.52;7.15;;;14.30;99.90;;;;;;4952676;28;20035;-81
2022/08/09 05:39:24;;;;;;;7.60;6.90;;;14.40;99.90;;;;;;4946545;29;20122;-82
2022/08/09 05:41:50;;;;;;;7.60;6.90;;;14.60;99.90;;;;;;4947542;29;20079;-80
2022/08/09 05:44:16;;;;;;;7.57;6.80;;;14.70;99.90;;;;;;4953340;28;20035;-81
2022/08/09 05:46:42;;;;;;;8.55;7.65;;;14.80;99.90;;;;;;4938802;28;20035;-80
2022/08/09 05:49:08;;;;;;;8.18;7.10;;;14.90;99.90;;;;;;4943780;29;20086;-80
2022/08/09 05:51:34;;;;;;;8.57;7.05;;;15.00;99.90;;;;;;4953052;28;20043;-80
2022/08/09 05:53:59;;;;;;;8.43;7.63;;;15.20;99.90;;;;;;4954617;29;20050;-81
2022/08/09 05:56:26;;;;;;;8.30;7.50;;;15.30;99.90;;;;;;4956383;29;20035;-80
2022/08/09 05:58:56;;;;;;;7.90;7.10;;;15.40;99.90;;;;;;4952564;29;20106;-82
2022/08/09 06:01:23;;;;;;;11.48;7.28;;;15.50;99.90;;;;;;4955960;29;20487;-82
2022/08/09 06:03:49;;;;;;;7.97;7.15;;;15.70;99.90;;;;;;4956381;29;20062;-82
2022/08/09 06:06:15;;;;;;;8.45;7.68;;;15.80;99.90;;;;;;4959698;29;20023;-82
2022/08/09 06:08:41;;;;;;;10.02;8.00;;;16.00;99.90;;;;;;4959669;29;20043;-81
2022/08/09 06:11:07;;;;;;;8.40;7.60;;;16.10;99.90;;;;;;4942010;29;20057;-83
2022/08/09 06:13:33;;;;;;;8.50;7.70;;;16.20;99.90;;;;;;4954934;28;20070;-82
2022/08/09 06:15:59;;;;;;;7.97;6.72;;;16.40;99.90;;;;;;4956110;28;20073;-82
2022/08/09 06:18:25;;;;;;;7.68;6.88;;;16.60;99.90;;;;;;4946891;28;20032;-83
2022/08/09 06:20:52;;;;;;;9.05;7.13;;;16.70;99.90;;;;;;4953179;29;20046;-82
2022/08/09 06:23:17;;;;;;;9.63;6.53;;;16.80;99.90;;;;;;4956509;29;20046;-82
2022/08/09 06:25:43;;;;;;;7.07;6.20;;;17.00;99.90;;;;;;4956242;29;20027;-83
2022/08/09 06:28:09;;;;;;;7.47;6.68;;;17.10;99.90;;;;;;4956403;29;20037;-82
2022/08/09 06:30:36;;;;;;;6.70;6.07;;;17.30;99.90;;;;;;4954791;28;20079;-82
2022/08/09 06:33:02;;;;;;;7.45;6.20;;;17.50;99.90;;;;;;4939630;29;20133;-82
2022/08/09 06:35:28;;;;;;;5.97;5.47;;;17.70;99.90;;;;;;4955974;29;20031;-82
2022/08/09 06:37:53;;;;;;;6.63;5.82;;;17.80;99.90;;;;;;4956344;29;20031;-82
2022/08/09 06:40:19;;;;;;;5.20;4.50;;;18.10;99.90;;;;;;4957387;29;20095;-82
2022/08/09 06:42:45;;;;;;;4.88;4.43;;;18.30;99.90;;;;;;4957789;29;20028;-82
2022/08/09 06:45:11;;;;;;;4.22;3.92;;;18.50;99.40;;;;;;4955918;29;20038;-83
2022/08/09 06:47:37;;;;;;;4.70;4.25;;;18.70;99.80;;;;;;4957994;29;20470;-82
2022/08/09 06:50:04;;;;;;;4.57;4.18;;;18.80;96.50;;;;;;4956379;28;20192;-81
2022/08/09 06:52:30;;;;;;;4.25;3.88;;;19.00;98.10;;;;;;4950157;29;20040;-81
2022/08/09 06:54:55;;;;;;;5.32;3.85;;;19.10;95.50;;;;;;4932918;29;20066;-82
2022/08/09 06:57:21;;;;;;;3.90;3.50;;;19.20;96.20;;;;;;4953573;29;20067;-82
2022/08/09 06:59:47;;;;;;;7.20;4.15;;;19.20;93.50;;;;;;4956835;29;20027;-82
2022/08/09 07:02:13;;;;;;;5.18;4.05;;;19.30;95.60;;;;;;4956799;29;20051;-82
2022/08/09 07:04:40;;;;;;;4.07;3.53;;;19.30;94.30;;;;;;4956247;28;20366;-82
2022/08/09 07:07:06;;;;;;;4.97;3.88;;;19.50;98.40;;;;;;4957777;29;20034;-82
2022/08/09 07:09:32;;;;;;;3.90;3.60;;;19.60;93.80;;;;;;4954964;28;20051;-81
2022/08/09 07:11:57;;;;;;;3.92;3.63;;;19.70;93.80;;;;;;4955358;29;20031;-82
2022/08/09 07:14:23;;;;;;;3.85;3.55;;;19.80;90.80;;;;;;4953614;29;20059;-82
2022/08/09 07:16:49;;;;;;;4.10;3.80;;;19.80;91.50;;;;;;4938159;29;20043;-82
2022/08/09 07:19:16;;;;;;;4.57;3.55;;;19.80;92.60;;;;;;4956437;28;20036;-82
2022/08/09 07:21:44;;;;;;;3.97;3.70;;;19.90;91.50;;;;;;4958673;29;20035;-82
2022/08/09 07:24:10;;;;;;;4.35;3.95;;;20.00;90.90;;;;;;4957586;29;20067;-82
2022/08/09 07:26:35;;;;;;;3.50;3.20;;;20.20;85.60;;;;;;4939968;29;20083;-82
2022/08/09 07:29:03;;;;;;;3.95;3.55;;;20.20;85.50;;;;;;4957800;29;20122;-83
2022/08/09 07:31:29;;;;;;;;;;;20.40;90.60;;;;;;4957474;29;20122;-82
2022/08/09 07:33:55;;;;;;;6.00;3.58;;;20.60;90.10;;;;;;4955313;29;20009;-82
2022/08/09 07:36:20;;;;;;;3.60;3.30;;;20.70;87.60;;;;;;4956065;29;20031;-82
2022/08/09 07:38:46;;;;;;;4.28;3.10;;;20.80;80.00;;;;;;4956062;29;20110;-82
2022/08/09 07:41:11;;;;;;;3.40;3.10;;;20.80;82.90;;;;;;4956122;29;20047;-82
2022/08/09 07:43:37;;;;;;;4.35;3.30;;;21.00;79.60;;;;;;4956101;29;20035;-82
2022/08/09 07:46:03;;;;;;;3.25;2.95;;;21.00;75.70;;;;;;4955400;29;20051;-82
2022/08/09 07:48:29;;;;;;;3.63;3.25;;;21.00;79.00;;;;;;4952997;29;20070;-82
2022/08/09 07:50:55;;;;;;;3.33;3.05;;;21.20;75.40;;;;;;4945360;29;20042;-81
2022/08/09 07:53:21;;;;;;;3.00;2.70;;;21.30;70.50;;;;;;4951899;29;20059;-81
2022/08/09 07:55:47;;;;;;;3.47;3.17;;;21.40;70.70;;;;;;4953511;29;20074;-82
2022/08/09 07:58:12;;;;;;;4.43;3.13;;;21.50;73.90;;;;;;4936602;29;20042;-82
2022/08/09 08:00:38;;;;;;;5.35;2.97;;;21.50;73.80;;;;;;4937228;29;20066;-82
2022/08/09 08:03:04;;;;;;;3.28;3.00;;;21.70;73.00;;;;;;4952540;29;20184;-82
2022/08/09 08:05:30;;;;;;;3.13;2.70;;;21.70;71.70;;;;;;4952470;29;20169;-82
2022/08/09 08:07:56;;;;;;;3.10;2.80;;;21.70;70.50;;;;;;4944795;29;20503;-82
2022/08/09 08:10:21;;;;;;;5.30;2.70;;;21.80;65.20;;;;;;4952560;29;20434;-83
2022/08/09 08:12:47;;;;;;;2.70;2.50;;;21.90;66.30;;;;;;4953320;29;20106;-82
2022/08/09 08:15:16;;;;;;;2.80;2.60;;;22.00;67.00;;;;;;4953970;28;20043;-82
2022/08/09 08:17:42;;;;;;;3.20;2.90;;;22.10;64.80;;;;;;4934980;29;20039;-83
2022/08/09 08:20:08;;;;;;;4.78;2.58;;;22.30;62.30;;;;;;4952453;29;20058;-82
2022/08/09 08:22:34;;;;;;;4.00;2.97;;;22.20;66.30;;;;;;4951444;29;20031;-82
2022/08/09 08:24:59;;;;;;;2.80;2.60;;;22.30;67.00;;;;;;4953181;29;21738;-82
2022/08/09 08:27:25;;;;;;;5.70;2.50;;;22.40;68.40;;;;;;4954682;29;20493;-82
2022/08/09 08:29:52;;;;;;;2.65;2.47;;;22.40;63.00;;;;;;4954750;29;20031;-83
2022/08/09 08:32:19;;;;;;;3.88;2.58;;;22.50;61.90;;;;;;4954026;29;20049;-82
2022/08/09 08:34:45;;;;;;;2.97;2.75;;;22.40;65.80;;;;;;4952568;29;20039;-81
2022/08/09 08:37:11;;;;;;;3.58;2.58;;;22.50;63.60;;;;;;4934476;29;20044;-82
2022/08/09 08:39:37;;;;;;;5.07;2.30;;;22.70;60.50;;;;;;4920762;29;20371;-82
2022/08/09 08:42:03;;;;;;;2.33;2.10;;;22.70;59.30;;;;;;4955274;29;21577;-82
2022/08/09 08:44:28;;;;;;;2.70;2.45;;;22.70;57.20;;;;;;4952009;28;20054;-82
2022/08/09 08:46:56;;;;;;;4.40;2.70;;;22.70;59.60;;;;;;4952032;29;20050;-82
2022/08/09 08:49:22;;;;;;;3.05;2.40;;;22.90;60.40;;;;;;4955982;29;20046;-82
2022/08/09 08:51:48;;;;;;;2.40;2.15;;;23.00;58.50;;;;;;4952463;29;20409;-82
2022/08/09 08:54:14;;;;;;;2.25;2.13;;;23.10;55.50;;;;;;4952618;29;20122;-82
2022/08/09 08:56:41;;;;;;;4.20;2.40;;;23.10;56.80;;;;;;4953383;29;20050;-82
2022/08/09 08:59:12;;;;;;;4.28;2.05;;;23.20;55.50;;;;;;4935630;29;20039;-81
2022/08/09 09:01:44;;;;;;;2.83;2.28;;;23.30;54.30;;;;;;4948331;29;20047;-82
2022/08/09 09:04:13;;;;;;;2.80;2.60;;;23.40;53.60;;;;;;4935298;29;20031;-80
2022/08/09 09:06:42;;;;;;;5.03;2.40;;;23.30;54.00;;;;;;4936223;29;20061;-82
2022/08/09 09:09:10;;;;;;;2.15;2.05;;;23.60;51.80;;;;;;4951910;29;20495;-81
2022/08/09 09:11:36;;;;;;;4.95;2.53;;;23.40;51.00;;;;;;4952167;29;20059;-81
2022/08/09 09:14:31;;;;;;;4.45;2.30;;;23.30;51.90;;;;;;4952512;29;20054;-80
2022/08/09 09:16:59;;;;;;;2.67;2.35;;;23.60;54.20;;;;;;4938937;29;20098;-82
2022/08/09 09:19:25;;;;;;;2.47;2.38;;;23.80;52.30;;;;;;4952554;29;20427;-81
2022/08/09 09:22:14;;;;;;;3.28;2.80;;;23.80;51.30;;;;;;4952699;29;20043;-81
2022/08/09 09:24:43;;;;;;;2.95;2.45;;;23.90;55.10;;;;;;4952496;29;20050;-82
2022/08/09 09:27:15;;;;;;;2.40;2.10;;;23.80;56.70;;;;;;4936022;29;20035;-81
2022/08/09 09:29:42;;;;;;;2.40;2.20;;;23.70;52.00;;;;;;4955926;29;20733;-81
2022/08/09 09:32:09;;;;;;;2.13;2.03;;;23.70;50.20;;;;;;4947485;29;20462;-81
2022/08/09 09:34:35;;;;;;;1.90;1.80;;;24.00;48.70;;;;;;4957702;29;20039;-80
2022/08/09 09:37:03;;;;;;;2.00;1.70;;;24.00;45.00;;;;;;4955924;29;20031;-81
2022/08/09 09:39:29;;;;;;;;;;;24.00;45.60;;;;;;4956530;29;20035;-80
2022/08/09 09:41:56;;;;;;;2.25;2.10;;;24.00;47.30;;;;;;4954972;29;19922;-80
2022/08/09 09:44:28;;;;;;;2.30;2.10;;;24.00;47.30;;;;;;4957431;29;20042;-81
2022/08/09 09:47:06;;;;;;;2.85;1.92;;;24.00;49.70;;;;;;4956979;29;20054;-80
2022/08/09 09:49:32;;;;;;;1.80;1.70;;;24.10;49.00;;;;;;4955979;29;20031;-80
2022/08/09 09:52:03;;;;;;;3.58;1.95;;;24.30;49.60;;;;;;4954257;29;20459;-80
2022/08/09 09:54:37;;;;;;;3.78;1.70;;;24.10;46.60;;;;;;4955792;29;20042;-80
2022/08/09 09:57:16;;;;;;;4.72;2.00;;;24.00;45.90;;;;;;4955383;29;20254;-81
2022/08/09 09:59:43;;;;;;;5.30;2.05;;;24.30;44.90;;;;;;4955280;29;20031;-80
2022/08/09 10:02:09;;;;;;;2.75;1.70;;;24.10;45.20;;;;;;4954750;29;20049;-80
2022/08/09 10:04:35;;;;;;;3.05;1.75;;;24.10;45.70;;;;;;4954902;29;20062;-80
2022/08/09 10:07:01;;;;;;;2.08;1.98;;;24.10;46.50;;;;;;4956715;29;20486;-80
2022/08/09 10:09:44;;;;;;;1.80;1.70;;;24.30;44.80;;;;;;4955414;29;20043;-81
2022/08/09 10:12:09;;;;;;;2.40;1.83;;;24.30;44.40;;;;;;4956010;29;20031;-80
2022/08/09 10:14:35;;;;;;;1.90;1.80;;;24.50;41.90;;;;;;4956228;29;20031;-81
2022/08/09 10:17:10;;;;;;;2.75;1.63;;;24.50;43.90;;;;;;4954966;29;20093;-80
2022/08/09 10:19:37;;;;;;;2.33;1.90;;;24.50;43.60;;;;;;4954145;29;20050;-81
2022/08/09 10:22:03;;;;;;;3.13;2.20;;;24.70;43.60;;;;;;4958134;28;20053;-81
2022/08/09 10:24:29;;;;;;;2.13;2.00;;;24.70;42.60;;;;;;4955754;29;20035;-81
2022/08/09 10:26:57;;;;;;;3.30;1.92;;;24.50;43.80;;;;;;4958162;29;20023;-81
2022/08/09 10:29:23;;;;;;;;;;;24.60;43.50;;;;;;4925212;29;20102;-81
2022/08/09 10:31:49;;;;;;;2.05;1.65;;;24.50;43.70;;;;;;4955724;29;20362;-81
2022/08/09 10:34:15;;;;;;;2.75;1.80;;;24.80;44.30;;;;;;4956275;29;20062;-81
2022/08/09 10:36:41;;;;;;;1.75;1.65;;;24.60;41.70;;;;;;4956506;29;20066;-81
2022/08/09 10:39:08;;;;;;;2.45;1.95;;;24.60;43.10;;;;;;4956132;28;20075;-82
2022/08/09 10:41:35;;;;;;;1.70;1.60;;;24.70;41.40;;;;;;4955382;29;20039;-81
2022/08/09 10:44:01;;;;;;;2.92;2.05;;;24.50;43.40;;;;;;4956098;29;20031;-81
2022/08/09 10:46:36;;;;;;;10.65;2.30;;;24.70;46.70;;;;;;4956210;29;20146;-82
2022/08/09 10:49:32;;;;;;;3.70;1.85;;;25.00;43.50;;;;;;4940272;29;20097;-81
2022/08/09 10:52:25;;;;;;;1.80;1.67;;;24.80;41.20;;;;;;4963055;29;20410;-81
2022/08/09 10:54:52;;;;;;;2.92;1.90;;;24.90;41.70;;;;;;4960614;29;20348;-81
2022/08/09 10:57:18;;;;;;;1.70;1.58;;;24.90;41.90;;;;;;4960216;29;20070;-81
2022/08/09 10:59:44;;;;;;;5.95;1.85;;;24.70;42.00;;;;;;4955853;29;20031;-81
2022/08/09 11:02:35;;;;;;;1.52;1.40;;;24.70;41.20;;;;;;4954393;29;20050;-81
2022/08/09 11:05:16;;;;;;;2.60;1.70;;;24.70;42.30;;;;;;4954704;28;20114;-81
2022/08/09 11:07:42;;;;;;;2.10;1.88;;;24.90;46.00;;;;;;4953675;29;20071;-81
2022/08/09 11:10:07;;;;;;;1.70;1.60;;;25.00;43.70;;;;;;4954610;28;20109;-81
2022/08/09 11:12:33;;;;;;;2.08;1.95;;;25.10;40.60;;;;;;4955189;29;20039;-81
2022/08/09 11:15:19;;;;;;;1.80;1.70;;;25.00;42.40;;;;;;4954619;29;20042;-81
2022/08/09 11:17:48;;;;;;;2.53;2.00;;;25.00;42.70;;;;;;4954757;28;20027;-81
2022/08/09 11:20:14;;;;;;;1.75;1.65;;;25.10;42.90;;;;;;4955414;28;20179;-80
2022/08/09 11:22:40;;;;;;;1.70;1.60;;;25.00;41.30;;;;;;4953486;29;20784;-81
2022/08/09 11:25:19;;;;;;;2.72;1.85;;;24.90;42.00;;;;;;4956127;29;20135;-81
2022/08/09 11:27:45;;;;;;;1.58;1.40;;;25.00;42.50;;;;;;4953921;29;20050;-81
2022/08/09 11:30:14;;;;;;;3.80;1.50;;;24.90;39.80;;;;;;4955170;29;20376;-81
2022/08/09 11:32:39;;;;;;;2.25;1.60;;;25.10;40.40;;;;;;4938860;29;20166;-81
2022/08/09 11:35:34;;;;;;;2.20;1.55;;;25.10;40.00;;;;;;4955609;28;20377;-81
2022/08/09 11:38:29;;;;;;;3.22;1.70;;;25.00;39.70;;;;;;4948694;28;20051;-80
2022/08/09 11:40:54;;;;;;;2.42;1.52;;;25.10;40.80;;;;;;4955117;28;20031;-79
2022/08/09 11:43:26;;;;;;;2.05;1.70;;;25.20;40.30;;;;;;4939160;29;20489;-80
2022/08/09 11:45:54;;;;;;;3.67;1.60;;;25.00;39.20;;;;;;4959683;28;20098;-80
2022/08/09 11:48:26;;;;;;;1.70;1.60;;;25.00;40.00;;;;;;4954920;28;20027;-80
2022/08/09 11:51:00;;;;;;;3.90;1.65;;;25.20;39.50;;;;;;4954836;28;20039;-79
2022/08/09 11:53:38;;;;;;;1.70;1.60;;;25.30;42.00;;;;;;4938190;29;20038;-81
2022/08/09 11:56:13;;;;;;;1.83;1.70;;;25.30;42.10;;;;;;4935142;28;20054;-80
2022/08/09 11:58:52;;;;;;;1.75;1.50;;;25.30;39.20;;;;;;4956792;28;20520;-80
2022/08/09 12:01:30;;;;;;;2.58;1.60;;;25.10;40.60;;;;;;4956344;29;20085;-80
2022/08/09 12:04:01;;;;;;;1.77;1.67;;;25.10;39.50;;;;;;4954359;28;20035;-79
2022/08/09 12:06:27;;;;;;;1.55;1.45;;;25.10;38.40;;;;;;4958221;28;20046;-80
2022/08/09 12:08:55;;;;;;;2.65;1.85;;;25.20;38.20;;;;;;4949186;29;20055;-80
2022/08/09 12:11:23;;;;;;;1.80;1.70;;;25.10;39.10;;;;;;4920174;29;20028;-80
2022/08/09 12:14:02;;;;;;;2.55;1.80;;;25.40;42.00;;;;;;4937363;29;20035;-80
2022/08/09 12:16:31;;;;;;;2.45;1.90;;;25.40;39.70;;;;;;4936720;29;20039;-80
2022/08/09 12:18:57;;;;;;;2.80;1.60;;;25.30;41.20;;;;;;4938021;29;20589;-80
2022/08/09 12:21:26;;;;;;;2.25;1.60;;;25.30;39.60;;;;;;4934610;29;20118;-79
2022/08/09 12:23:53;;;;;;;2.38;1.67;;;25.30;38.10;;;;;;4935286;29;20032;-79
2022/08/09 12:26:20;;;;;;;2.03;1.80;;;25.40;40.40;;;;;;4934218;29;20467;-79
2022/08/09 12:28:49;;;;;;;2.88;1.70;;;25.40;41.80;;;;;;4935007;29;20071;-79
2022/08/09 12:31:25;;;;;;;2.00;1.80;;;25.50;40.10;;;;;;4933736;29;20039;-79
2022/08/09 12:33:52;;;;;;;1.80;1.70;;;25.20;39.50;;;;;;4935906;29;20027;-79
2022/08/09 12:36:19;;;;;;;2.40;1.83;;;25.30;41.10;;;;;;4933517;29;20110;-79
2022/08/09 12:38:45;;;;;;;1.60;1.50;;;25.20;39.60;;;;;;4933871;29;20491;-79
2022/08/09 12:41:12;;;;;;;2.15;1.52;;;25.20;39.40;;;;;;4937993;29;20039;-79
2022/08/09 12:43:38;;;;;;;1.90;1.65;;;25.40;38.00;;;;;;4939381;29;20442;-79
2022/08/09 12:46:05;;;;;;;2.03;1.42;;;25.50;41.30;;;;;;4934018;29;20043;-79
2022/08/09 12:48:32;;;;;;;1.85;1.45;;;25.50;37.20;;;;;;4935003;29;20063;-79
2022/08/09 12:50:58;;;;;;;2.40;1.73;;;25.40;36.80;;;;;;4933900;29;20534;-79
2022/08/09 12:53:32;;;;;;;2.63;1.73;;;25.20;39.50;;;;;;4933984;29;20077;-79